Time;durP1;ratioP1;P1;durP2;ratioP2;P2;SDS_P1;SDS_P2;PMS_P1;PMS_P2;Temp;Humidity;BMP_temperature;BMP_pressure;BME280_temperature;BME280_humidity;BME280_pressure;Samples;Min_cycle;Max_cycle;Signal;HPM_P1;HPM_P2
2022/05/23 00:01:19;;;;;;;6.00;2.13;;;13.20;99.90;;;;;;5116189;28;20194;-63
2022/05/23 00:03:45;;;;;;;6.30;2.20;;;13.30;99.90;;;;;;5119067;28;20166;-63
2022/05/23 00:06:16;;;;;;;2.73;1.97;;;13.40;99.90;;;;;;5128736;28;20230;-64
2022/05/23 00:08:42;;;;;;;2.53;2.03;;;13.40;99.90;;;;;;5124796;28;20593;-64
2022/05/23 00:11:08;;;;;;;2.63;1.90;;;13.10;99.90;;;;;;5129712;28;20245;-65
2022/05/23 00:13:34;;;;;;;2.40;1.90;;;13.20;99.90;;;;;;5127448;28;20177;-64
2022/05/23 00:16:00;;;;;;;3.57;2.00;;;12.90;99.90;;;;;;5122004;28;20162;-63
2022/05/23 00:18:26;;;;;;;2.60;2.17;;;12.80;99.90;;;;;;5115637;28;20292;-62
2022/05/23 00:20:51;;;;;;;3.20;2.10;;;12.80;99.90;;;;;;5116078;28;20269;-63
2022/05/23 00:23:17;;;;;;;4.27;2.13;;;12.80;99.90;;;;;;5115223;28;20177;-62
2022/05/23 00:25:43;;;;;;;4.83;2.30;;;13.00;99.90;;;;;;5098163;28;20170;-64
2022/05/23 00:28:08;;;;;;;3.80;1.70;;;13.10;99.90;;;;;;5123543;28;20158;-63
2022/05/23 00:30:34;;;;;;;1.90;1.60;;;13.10;99.90;;;;;;5130934;28;20226;-63
2022/05/23 00:35:50;;;;;;;3.00;1.90;;;13.10;99.90;;;;;;5115632;28;20211;-62
2022/05/23 00:38:17;;;;;;;2.97;1.97;;;12.90;99.90;;;;;;5115375;28;20187;-63
2022/05/23 00:44:00;;;;;;;2.73;1.90;;;12.80;99.90;;;;;;5114763;28;20243;-63
2022/05/23 00:46:26;;;;;;;2.90;1.90;;;12.70;99.90;;;;;;5114780;28;20565;-63
2022/05/23 00:48:52;;;;;;;2.93;1.97;;;12.70;99.90;;;;;;5114577;28;20245;-62
2022/05/23 00:51:18;;;;;;;3.20;1.80;;;12.70;99.90;;;;;;5115186;28;20321;-63
2022/05/23 00:53:57;;;;;;;2.90;2.00;;;12.80;99.90;;;;;;5115073;28;20249;-63
2022/05/23 00:56:26;;;;;;;2.73;1.80;;;12.80;99.90;;;;;;5114915;28;20165;-63
2022/05/23 00:58:59;;;;;;;1.87;1.57;;;12.80;99.90;;;;;;5115299;28;20574;-63
2022/05/23 01:01:29;;;;;;;2.60;1.40;;;12.90;99.90;;;;;;5114578;28;20213;-63
2022/05/23 01:03:55;;;;;;;3.50;2.00;;;12.80;99.90;;;;;;5114966;28;20626;-64
2022/05/23 01:06:21;;;;;;;2.00;1.80;;;12.60;99.90;;;;;;5130450;27;20243;-64
2022/05/23 01:08:49;;;;;;;2.20;1.83;;;12.60;99.90;;;;;;5114563;28;20164;-63
2022/05/23 01:11:15;;;;;;;3.67;2.00;;;12.60;99.90;;;;;;5114599;28;20174;-64
2022/05/23 01:13:41;;;;;;;4.00;1.63;;;12.70;99.90;;;;;;5114277;28;20180;-63
2022/05/23 01:16:07;;;;;;;3.27;1.77;;;12.90;99.90;;;;;;5114085;28;20520;-63
2022/05/23 01:18:33;;;;;;;3.23;2.10;;;12.90;99.90;;;;;;5114947;28;20159;-63
2022/05/23 01:21:01;;;;;;;2.30;1.90;;;12.80;99.90;;;;;;5117832;28;20192;-63
2022/05/23 01:23:41;;;;;;;4.30;2.40;;;12.70;99.90;;;;;;5114234;28;20185;-63
2022/05/23 01:26:07;;;;;;;2.43;1.83;;;12.60;99.90;;;;;;5114178;28;20162;-64
2022/05/23 01:28:38;;;;;;;2.83;1.53;;;12.70;99.90;;;;;;5114090;28;20203;-64
2022/05/23 01:31:05;;;;;;;1.73;1.60;;;12.60;99.90;;;;;;5113784;28;20173;-63
2022/05/23 01:33:31;;;;;;;1.87;1.67;;;12.70;99.90;;;;;;5113807;28;20186;-63
2022/05/23 01:35:57;;;;;;;2.10;1.70;;;12.80;99.90;;;;;;5113608;28;20162;-63
2022/05/23 01:38:24;;;;;;;2.13;1.77;;;12.70;99.90;;;;;;5114086;28;20174;-64
2022/05/23 01:40:50;;;;;;;2.40;1.93;;;12.50;99.90;;;;;;5113830;28;20557;-62
2022/05/23 01:43:16;;;;;;;3.03;1.90;;;12.50;99.90;;;;;;5113448;28;20250;-63
2022/05/23 01:45:42;;;;;;;2.70;1.90;;;12.40;99.90;;;;;;5113999;28;20582;-64
2022/05/23 01:48:08;;;;;;;1.60;1.50;;;12.40;99.90;;;;;;5113053;28;20216;-62
2022/05/23 01:50:35;;;;;;;3.23;1.80;;;12.50;99.90;;;;;;5114007;28;20215;-63
2022/05/23 01:53:01;;;;;;;3.80;2.10;;;12.60;99.90;;;;;;5113924;28;20562;-63
2022/05/23 01:55:27;;;;;;;2.20;1.83;;;12.80;99.90;;;;;;5113835;28;20162;-63
2022/05/23 01:57:53;;;;;;;2.83;1.93;;;12.50;99.90;;;;;;5113591;28;20541;-63
2022/05/23 02:03:03;;;;;;;2.37;1.60;;;12.60;99.90;;;;;;5113867;28;20246;-64
2022/05/23 02:05:30;;;;;;;4.17;1.80;;;12.60;99.90;;;;;;5095405;28;20174;-63
2022/05/23 02:07:56;;;;;;;2.00;1.80;;;12.50;99.90;;;;;;5114295;28;20256;-64
2022/05/23 02:10:23;;;;;;;2.77;2.10;;;12.50;99.90;;;;;;5113392;28;20497;-63
2022/05/23 02:12:49;;;;;;;2.37;1.90;;;12.30;99.90;;;;;;5113779;28;20171;-64
2022/05/23 02:15:16;;;;;;;3.00;1.83;;;12.30;99.90;;;;;;5113722;28;20237;-64
2022/05/23 02:17:42;;;;;;;2.67;1.77;;;12.30;99.90;;;;;;5114204;28;20579;-64
2022/05/23 02:20:09;;;;;;;5.47;2.10;;;12.30;99.90;;;;;;5114099;28;20283;-63
2022/05/23 02:22:35;;;;;;;2.73;1.70;;;12.10;99.90;;;;;;5117974;28;20206;-63
2022/05/23 02:25:01;;;;;;;3.10;1.90;;;12.30;99.90;;;;;;5136031;28;20271;-67
2022/05/23 02:27:28;;;;;;;3.93;1.83;;;12.30;99.90;;;;;;5118249;28;20266;-63
2022/05/23 02:29:53;;;;;;;3.73;1.90;;;12.20;99.90;;;;;;5119102;28;20248;-62
2022/05/23 02:32:19;;;;;;;2.97;2.03;;;12.20;99.90;;;;;;5118394;28;20621;-63
2022/05/23 02:34:45;;;;;;;2.37;2.03;;;12.00;99.90;;;;;;5118852;28;20166;-63
2022/05/23 02:37:11;;;;;;;2.53;2.00;;;12.10;99.90;;;;;;5117256;28;20159;-64
2022/05/23 02:39:37;;;;;;;2.33;1.93;;;12.10;99.90;;;;;;5118878;28;20217;-63
2022/05/23 02:42:03;;;;;;;2.90;1.80;;;12.00;99.90;;;;;;5119432;28;20218;-63
2022/05/23 02:44:28;;;;;;;2.40;1.83;;;12.20;99.90;;;;;;5117447;28;20170;-63
2022/05/23 02:46:55;;;;;;;2.73;2.20;;;12.00;99.90;;;;;;5120224;28;20166;-64
2022/05/23 02:49:21;;;;;;;3.63;2.27;;;12.10;99.90;;;;;;5122782;28;20212;-63
2022/05/23 02:51:47;;;;;;;1.83;1.73;;;12.20;99.90;;;;;;5122334;28;20159;-65
2022/05/23 02:54:13;;;;;;;2.93;1.87;;;12.00;99.90;;;;;;5138226;27;20195;-66
2022/05/23 02:56:39;;;;;;;5.10;2.17;;;12.00;99.90;;;;;;5121588;28;20269;-63
2022/05/23 02:59:05;;;;;;;2.43;1.70;;;11.90;99.90;;;;;;5120878;28;20205;-63
2022/05/23 03:01:31;;;;;;;4.97;2.30;;;12.10;99.90;;;;;;5125016;28;20304;-65
2022/05/23 03:03:57;;;;;;;2.70;2.07;;;12.20;99.90;;;;;;5126986;28;20192;-63
2022/05/23 03:06:22;;;;;;;2.13;1.93;;;12.20;99.90;;;;;;5126433;28;20253;-63
2022/05/23 03:08:48;;;;;;;1.97;1.57;;;12.20;99.90;;;;;;5123903;28;20158;-62
2022/05/23 03:11:13;;;;;;;3.27;2.30;;;12.30;99.90;;;;;;5128465;28;20303;-65
2022/05/23 03:13:39;;;;;;;1.90;1.70;;;12.20;99.90;;;;;;5126151;28;20172;-64
2022/05/23 03:16:12;;;;;;;3.03;1.83;;;12.20;99.90;;;;;;5118437;28;20174;-65
2022/05/23 03:18:39;;;;;;;4.13;2.43;;;12.20;99.90;;;;;;5136857;28;20181;-63
2022/05/23 03:21:10;;;;;;;2.60;1.90;;;12.20;99.90;;;;;;5129144;28;20209;-63
2022/05/23 03:29:11;;;;;;;2.77;2.37;;;11.90;99.90;;;;;;5116838;28;20165;-64
2022/05/23 03:31:38;;;;;;;1.67;1.57;;;11.80;99.90;;;;;;5116314;28;20245;-63
2022/05/23 03:34:03;;;;;;;3.50;2.07;;;11.80;99.90;;;;;;5098350;28;20192;-62
2022/05/23 03:36:30;;;;;;;3.33;2.27;;;11.80;99.90;;;;;;5132706;27;20181;-62
2022/05/23 03:38:56;;;;;;;5.83;2.13;;;11.80;99.90;;;;;;5116978;28;20201;-63
2022/05/23 03:41:21;;;;;;;2.10;1.80;;;11.90;99.90;;;;;;5116971;28;20194;-63
2022/05/23 03:43:47;;;;;;;4.07;1.87;;;11.90;99.90;;;;;;5116070;28;20159;-63
2022/05/23 03:46:14;;;;;;;3.73;2.30;;;12.00;99.90;;;;;;5115871;28;20174;-64
2022/05/23 03:48:40;;;;;;;1.80;1.67;;;12.00;99.90;;;;;;5116040;28;20200;-63
2022/05/23 03:51:07;;;;;;;2.10;1.90;;;12.00;99.90;;;;;;5116274;28;20217;-63
2022/05/23 03:53:34;;;;;;;2.77;1.73;;;12.10;99.90;;;;;;5116173;28;20151;-63
2022/05/23 03:55:59;;;;;;;3.87;2.00;;;12.20;99.90;;;;;;5115532;28;20173;-63
2022/05/23 03:58:28;;;;;;;1.97;1.77;;;12.10;99.90;;;;;;5114600;28;20163;-63
2022/05/23 04:01:04;;;;;;;2.17;1.83;;;12.20;99.90;;;;;;5115286;28;20218;-64
2022/05/23 04:03:29;;;;;;;2.90;2.17;;;12.30;99.90;;;;;;5115538;28;20598;-63
2022/05/23 04:05:57;;;;;;;3.70;2.37;;;12.30;99.90;;;;;;5116655;28;20166;-63
2022/05/23 04:08:23;;;;;;;2.73;2.00;;;12.20;99.90;;;;;;5115490;28;20178;-63
2022/05/23 04:10:49;;;;;;;5.83;2.47;;;12.20;99.90;;;;;;5115384;28;20526;-63
2022/05/23 04:13:14;;;;;;;4.13;1.97;;;12.40;99.90;;;;;;5115194;28;20171;-62
2022/05/23 04:15:41;;;;;;;4.03;2.33;;;12.50;99.90;;;;;;5115468;28;20201;-63
2022/05/23 04:18:07;;;;;;;3.43;2.00;;;12.50;99.90;;;;;;5115228;28;20216;-63
2022/05/23 04:20:32;;;;;;;2.10;1.90;;;12.50;99.90;;;;;;5115009;28;20190;-63
2022/05/23 04:22:58;;;;;;;3.10;2.00;;;12.50;99.90;;;;;;5115038;28;20171;-64
2022/05/23 04:25:24;;;;;;;4.70;2.00;;;12.50;99.90;;;;;;5115516;28;20597;-62
2022/05/23 04:27:49;;;;;;;3.50;2.17;;;12.50;99.90;;;;;;5131604;27;20189;-64
2022/05/23 04:30:15;;;;;;;2.37;2.03;;;12.60;99.90;;;;;;5120181;28;20162;-63
2022/05/23 04:35:25;;;;;;;2.60;2.03;;;12.70;99.90;;;;;;5120465;28;20161;-64
2022/05/23 04:37:53;;;;;;;2.80;2.00;;;12.70;99.90;;;;;;5126929;28;20154;-66
2022/05/23 04:40:24;;;;;;;2.63;2.13;;;12.60;99.90;;;;;;5128382;28;20194;-63
2022/05/23 04:42:50;;;;;;;2.13;1.80;;;12.60;99.90;;;;;;5117548;28;20201;-63
2022/05/23 04:45:17;;;;;;;4.73;2.13;;;12.70;99.90;;;;;;5115064;28;20215;-62
2022/05/23 04:50:27;;;;;;;4.37;2.10;;;12.60;99.90;;;;;;5114821;28;20162;-62
2022/05/23 04:52:54;;;;;;;2.80;1.87;;;12.80;99.90;;;;;;5113773;28;20174;-63
2022/05/23 04:55:20;;;;;;;6.53;2.20;;;12.90;99.90;;;;;;5114632;28;20628;-63
2022/05/23 04:57:47;;;;;;;3.93;2.30;;;13.00;99.90;;;;;;5114204;28;20607;-63
2022/05/23 05:00:18;;;;;;;2.30;2.10;;;13.10;99.90;;;;;;5114880;28;20170;-64
2022/05/23 05:02:45;;;;;;;3.60;1.80;;;13.20;99.90;;;;;;5114893;28;20185;-63
2022/05/23 05:05:11;;;;;;;2.87;2.30;;;13.30;99.90;;;;;;5114545;28;20209;-63
2022/05/23 05:07:36;;;;;;;3.37;2.10;;;13.50;99.90;;;;;;5114331;28;20312;-63
2022/05/23 05:10:03;;;;;;;2.93;1.93;;;13.70;99.90;;;;;;5114141;28;20586;-63
2022/05/23 05:12:28;;;;;;;2.90;2.10;;;13.80;99.90;;;;;;5114600;28;20285;-63
2022/05/23 05:14:54;;;;;;;3.13;1.97;;;13.90;99.90;;;;;;5114814;28;20204;-64
2022/05/23 05:17:20;;;;;;;3.23;2.03;;;14.00;99.90;;;;;;5130204;27;20181;-63
2022/05/23 05:19:45;;;;;;;4.63;1.80;;;14.10;99.90;;;;;;5114655;28;20164;-63
2022/05/23 05:22:11;;;;;;;2.10;1.83;;;14.20;99.90;;;;;;5114373;28;20202;-63
2022/05/23 05:24:37;;;;;;;4.27;1.60;;;14.20;99.90;;;;;;5114421;28;20170;-63
2022/05/23 05:27:03;;;;;;;4.17;1.80;;;14.40;99.90;;;;;;5114474;28;20507;-63
2022/05/23 05:29:29;;;;;;;6.77;2.00;;;14.50;99.90;;;;;;5116204;28;20580;-64
2022/05/23 05:32:13;;;;;;;1.87;1.77;;;14.70;99.90;;;;;;5114984;28;20170;-63
2022/05/23 05:34:48;;;;;;;2.93;1.70;;;14.90;99.90;;;;;;5113467;28;20193;-63
2022/05/23 05:37:19;;;;;;;4.00;1.83;;;15.00;99.90;;;;;;5115011;28;20169;-64
2022/05/23 05:39:47;;;;;;;2.60;1.43;;;15.10;99.90;;;;;;5114551;28;20158;-63
2022/05/23 05:42:21;;;;;;;2.30;1.73;;;15.20;99.90;;;;;;5114034;28;20193;-62
2022/05/23 05:44:53;;;;;;;2.87;1.60;;;15.40;99.90;;;;;;5114385;28;20205;-62
2022/05/23 05:47:20;;;;;;;1.50;1.27;;;15.60;99.90;;;;;;5114078;28;20163;-64
2022/05/23 05:49:49;;;;;;;2.33;1.40;;;15.80;99.90;;;;;;5113810;28;20170;-64
2022/05/23 05:52:18;;;;;;;2.53;1.60;;;15.90;99.90;;;;;;5113806;28;20166;-61
2022/05/23 05:54:44;;;;;;;1.30;1.20;;;15.90;99.90;;;;;;5113772;28;20188;-62
2022/05/23 05:57:12;;;;;;;3.37;1.70;;;16.00;99.90;;;;;;5113601;28;20586;-63
2022/05/23 05:59:37;;;;;;;1.73;1.40;;;16.20;99.90;;;;;;5113892;28;20166;-63
2022/05/23 06:02:06;;;;;;;1.30;1.20;;;16.20;99.90;;;;;;5114019;28;20217;-63
2022/05/23 06:04:32;;;;;;;2.57;1.30;;;16.30;99.90;;;;;;5113881;28;20245;-64
2022/05/23 06:12:25;;;;;;;1.30;1.17;;;16.90;99.90;;;;;;5121492;28;20181;-63
2022/05/23 06:14:51;;;;;;;1.30;1.20;;;17.00;99.90;;;;;;5113648;28;20166;-62
2022/05/23 06:17:16;;;;;;;2.20;1.33;;;16.90;99.90;;;;;;5114421;28;20173;-63
2022/05/23 06:19:46;;;;;;;2.20;1.37;;;17.00;99.90;;;;;;5114201;28;20194;-63
2022/05/23 06:22:13;;;;;;;2.43;1.40;;;17.10;99.90;;;;;;5117158;28;20185;-63
2022/05/23 06:24:38;;;;;;;1.92;1.30;;;17.00;99.90;;;;;;5117891;28;20165;-63
2022/05/23 06:27:05;;;;;;;1.42;1.20;;;17.10;99.90;;;;;;5117656;28;20167;-63
2022/05/23 06:29:31;;;;;;;1.90;1.13;;;17.30;99.90;;;;;;5113739;27;20166;-62
2022/05/23 06:31:57;;;;;;;2.22;1.48;;;17.40;99.90;;;;;;5117625;28;20688;-70
2022/05/23 06:34:23;;;;;;;1.77;1.05;;;18.20;99.90;;;;;;5117980;28;20194;-69
2022/05/23 06:36:48;;;;;;;1.92;1.23;;;18.70;99.90;;;;;;5121709;28;20218;-71
2022/05/23 06:39:14;;;;;;;1.77;1.50;;;18.60;99.90;;;;;;5123679;28;20165;-63
2022/05/23 06:41:39;;;;;;;1.70;1.23;;;18.00;99.90;;;;;;5109327;28;20217;-64
2022/05/23 06:44:05;;;;;;;3.38;1.98;;;17.70;99.90;;;;;;5125886;28;20159;-64
2022/05/23 06:46:31;;;;;;;1.40;1.30;;;17.60;99.90;;;;;;5131246;28;20171;-63
2022/05/23 06:48:56;;;;;;;6.18;1.58;;;17.60;99.90;;;;;;5121123;28;20158;-63
2022/05/23 06:51:23;;;;;;;1.20;1.10;;;17.60;99.90;;;;;;5118042;28;20166;-62
2022/05/23 06:53:49;;;;;;;3.05;1.58;;;17.60;99.90;;;;;;5100070;28;20513;-63
2022/05/23 06:56:15;;;;;;;3.72;2.00;;;17.50;99.90;;;;;;5117005;28;20166;-63
2022/05/23 06:58:40;;;;;;;6.45;1.80;;;17.50;99.90;;;;;;5099378;28;20537;-62
2022/05/23 07:01:06;;;;;;;2.17;2.00;;;17.60;99.90;;;;;;5116801;28;20243;-63
2022/05/23 07:03:34;;;;;;;4.07;1.55;;;17.50;99.90;;;;;;5116903;28;20640;-62
2022/05/23 07:14:18;;;;;;;1.88;1.60;;;17.60;99.90;;;;;;5119429;28;20152;-62
2022/05/23 07:16:43;;;;;;;2.55;1.48;;;17.80;99.90;;;;;;5119290;28;20265;-64
2022/05/23 07:19:09;;;;;;;3.63;1.70;;;17.90;99.90;;;;;;5118726;28;20150;-64
2022/05/23 07:21:35;;;;;;;2.92;1.52;;;18.00;99.90;;;;;;5117209;28;20609;-63
2022/05/23 07:24:01;;;;;;;2.30;1.77;;;18.00;99.90;;;;;;5117052;28;20198;-64
2022/05/23 07:26:27;;;;;;;3.70;2.00;;;18.10;99.90;;;;;;5113738;27;20186;-63
2022/05/23 07:28:53;;;;;;;3.75;2.33;;;18.10;99.90;;;;;;5115950;28;20253;-63
2022/05/23 07:31:19;;;;;;;5.30;2.20;;;18.20;99.90;;;;;;5115543;28;20170;-62
2022/05/23 07:33:45;;;;;;;5.28;2.47;;;18.20;99.90;;;;;;5115601;28;20171;-61
2022/05/23 07:36:12;;;;;;;6.18;1.70;;;18.30;99.90;;;;;;5112041;27;20606;-63
2022/05/23 07:38:38;;;;;;;2.28;1.58;;;18.40;99.90;;;;;;5132318;27;20570;-62
2022/05/23 07:41:07;;;;;;;2.08;1.83;;;18.30;99.90;;;;;;5121401;27;20205;-63
2022/05/23 07:43:35;;;;;;;3.20;1.40;;;18.40;99.90;;;;;;5136731;27;20173;-62
2022/05/23 07:46:09;;;;;;;3.20;2.13;;;18.20;99.90;;;;;;5136241;27;20584;-62
2022/05/23 07:48:36;;;;;;;2.40;1.60;;;18.30;99.90;;;;;;5135908;27;20157;-63
2022/05/23 07:51:02;;;;;;;3.05;1.63;;;18.40;99.90;;;;;;5136554;27;20162;-63
2022/05/23 08:01:39;;;;;;;1.92;1.50;;;18.60;99.90;;;;;;5136380;27;20690;-62
2022/05/23 08:04:08;;;;;;;2.00;1.48;;;18.60;99.90;;;;;;5136469;27;20252;-63
2022/05/23 08:06:33;;;;;;;1.67;1.58;;;18.80;99.90;;;;;;5136011;27;20229;-63
2022/05/23 08:08:59;;;;;;;2.65;1.65;;;18.90;99.90;;;;;;5135750;27;20168;-64
2022/05/23 08:11:24;;;;;;;3.25;1.75;;;19.00;99.90;;;;;;5135978;27;20176;-63
2022/05/23 08:13:54;;;;;;;3.88;1.60;;;18.90;99.90;;;;;;5135740;27;20158;-64
2022/05/23 08:16:19;;;;;;;4.15;1.50;;;19.20;99.90;;;;;;5138470;27;20229;-62
2022/05/23 08:18:45;;;;;;;2.83;1.70;;;19.10;99.90;;;;;;5136266;27;20538;-63
2022/05/23 08:21:11;;;;;;;2.40;1.60;;;19.20;99.90;;;;;;5135727;27;20274;-63
2022/05/23 08:23:36;;;;;;;3.00;1.60;;;19.00;99.90;;;;;;5135791;27;20153;-62
2022/05/23 08:26:02;;;;;;;5.78;1.80;;;19.10;99.90;;;;;;5135877;27;20162;-63
2022/05/23 08:28:28;;;;;;;4.72;2.08;;;19.20;99.90;;;;;;5135598;27;20158;-63
2022/05/23 08:30:54;;;;;;;3.38;1.70;;;19.10;99.90;;;;;;5131548;27;20168;-63
2022/05/23 08:33:20;;;;;;;2.97;1.95;;;19.10;99.90;;;;;;5135686;27;20196;-62
2022/05/23 08:35:48;;;;;;;2.88;1.75;;;19.20;99.90;;;;;;5135528;27;20176;-63
2022/05/23 08:38:14;;;;;;;3.60;1.50;;;19.40;99.90;;;;;;5135574;27;20226;-63
2022/05/23 08:41:05;;;;;;;2.47;1.90;;;19.40;99.90;;;;;;5135267;27;20629;-62
2022/05/23 08:43:42;;;;;;;1.58;1.42;;;19.40;99.90;;;;;;5143957;27;20252;-63
2022/05/23 08:46:15;;;;;;;2.58;1.52;;;19.50;99.90;;;;;;5144478;27;20153;-62
2022/05/23 08:48:57;;;;;;;3.63;1.33;;;19.40;99.90;;;;;;5147214;27;20158;-66
2022/05/23 08:51:35;;;;;;;6.60;1.80;;;19.50;99.90;;;;;;5149313;27;20157;-62
2022/05/23 08:54:10;;;;;;;1.98;1.40;;;19.80;99.90;;;;;;5135144;27;20556;-61
2022/05/23 08:56:41;;;;;;;2.42;1.85;;;19.60;99.90;;;;;;5136369;27;20221;-62
2022/05/23 08:59:42;;;;;;;2.65;1.65;;;19.50;99.90;;;;;;5135549;27;20166;-62
2022/05/23 09:02:18;;;;;;;3.47;1.90;;;19.50;99.90;;;;;;5144843;27;20219;-62
2022/05/23 09:04:52;;;;;;;2.58;1.48;;;19.60;99.90;;;;;;5118440;27;20165;-63
2022/05/23 09:07:42;;;;;;;3.13;1.63;;;19.80;99.90;;;;;;5113874;28;20474;-63
2022/05/23 09:10:33;;;;;;;1.92;1.52;;;19.70;99.90;;;;;;5114617;28;20243;-63
2022/05/23 09:13:00;;;;;;;1.92;1.40;;;19.60;99.90;;;;;;5083354;28;20243;-63
2022/05/23 09:15:26;;;;;;;1.55;1.40;;;19.80;99.90;;;;;;5114671;28;20173;-63
2022/05/23 09:18:05;;;;;;;2.80;1.50;;;20.20;99.80;;;;;;5116257;28;20171;-63
2022/05/23 09:20:40;;;;;;;4.25;2.08;;;20.40;98.40;;;;;;5116362;28;20189;-63
2022/05/23 09:23:13;;;;;;;2.20;1.50;;;20.40;98.30;;;;;;5115818;28;20157;-63
2022/05/23 09:25:39;;;;;;;3.35;1.65;;;20.50;98.40;;;;;;5099661;28;20700;-62
2022/05/23 09:28:20;;;;;;;2.65;1.60;;;20.40;98.60;;;;;;5110877;28;20264;-62
2022/05/23 09:30:56;;;;;;;1.60;1.50;;;20.50;98.30;;;;;;5114420;28;20615;-62
2022/05/23 09:33:22;;;;;;;1.73;1.63;;;20.70;98.20;;;;;;5114111;28;20158;-63
2022/05/23 09:36:07;;;;;;;2.47;1.58;;;20.80;98.00;;;;;;5114163;28;20162;-63
2022/05/23 09:38:54;;;;;;;3.70;1.70;;;21.10;96.20;;;;;;5115702;28;20312;-64
2022/05/23 09:47:46;;;;;;;2.20;1.45;;;21.30;91.50;;;;;;5113785;28;20161;-62
2022/05/23 09:50:27;;;;;;;2.10;1.40;;;21.70;90.80;;;;;;5114083;28;20185;-64
2022/05/23 09:52:57;;;;;;;5.15;2.42;;;21.80;91.70;;;;;;5112460;28;20170;-63
2022/05/23 09:55:30;;;;;;;5.55;1.70;;;22.00;90.10;;;;;;5114583;28;20158;-64
2022/05/23 09:58:00;;;;;;;3.75;1.90;;;22.20;87.80;;;;;;5118031;28;20178;-62
2022/05/23 10:00:49;;;;;;;3.38;1.90;;;22.00;84.60;;;;;;5118855;28;20158;-63
2022/05/23 10:03:19;;;;;;;2.25;1.60;;;22.40;86.50;;;;;;5108662;28;20272;-62
2022/05/23 10:05:50;;;;;;;1.60;1.50;;;22.40;85.70;;;;;;5118739;28;20154;-62
2022/05/23 10:08:28;;;;;;;1.77;1.40;;;22.50;83.20;;;;;;5139800;27;20594;-63
2022/05/23 10:11:06;;;;;;;2.70;1.45;;;22.10;80.00;;;;;;5146252;27;20172;-65
2022/05/23 10:13:37;;;;;;;4.03;1.73;;;22.30;77.20;;;;;;5130164;27;20233;-63
2022/05/23 10:16:09;;;;;;;2.22;1.70;;;22.50;75.80;;;;;;5139325;27;20593;-65
2022/05/23 10:18:43;;;;;;;2.58;1.50;;;22.50;74.80;;;;;;5134051;27;20617;-64
2022/05/23 10:21:31;;;;;;;3.45;1.95;;;22.50;74.20;;;;;;5122080;27;20604;-64
2022/05/23 10:24:25;;;;;;;5.45;1.98;;;22.50;75.30;;;;;;5138955;27;20165;-65
2022/05/23 10:26:56;;;;;;;2.58;1.45;;;22.80;74.20;;;;;;5121021;27;20685;-66
2022/05/23 10:29:39;;;;;;;3.15;1.27;;;22.90;74.50;;;;;;5142308;27;20207;-65
2022/05/23 10:32:09;;;;;;;5.97;1.67;;;23.00;74.60;;;;;;5129358;27;20573;-65
2022/05/23 10:34:41;;;;;;;3.05;1.70;;;22.60;75.20;;;;;;5163339;27;20611;-64
2022/05/23 10:37:25;;;;;;;2.40;1.85;;;22.60;73.60;;;;;;5146999;27;20170;-64
2022/05/23 10:42:39;;;;;;;2.10;1.90;;;22.20;72.90;;;;;;5138018;27;20209;-64
2022/05/23 10:45:37;;;;;;;2.00;1.85;;;22.20;73.20;;;;;;5139014;27;20165;-64
2022/05/23 10:48:15;;;;;;;2.53;1.95;;;22.30;73.60;;;;;;5146068;27;20158;-64
2022/05/23 10:51:00;;;;;;;3.90;1.80;;;22.30;74.90;;;;;;5126323;27;20266;-65
2022/05/23 10:53:54;;;;;;;3.10;1.63;;;21.90;74.80;;;;;;5145311;27;20183;-65
2022/05/23 10:56:40;;;;;;;2.88;1.70;;;21.70;75.70;;;;;;5114446;27;20199;-64
2022/05/23 10:59:36;;;;;;;3.45;1.83;;;21.70;76.70;;;;;;5138186;27;20165;-64
2022/05/23 11:02:20;;;;;;;7.40;1.92;;;21.90;77.10;;;;;;5138057;27;20213;-64
2022/05/23 11:04:49;;;;;;;1.70;1.60;;;21.90;78.10;;;;;;5123246;27;20170;-64
2022/05/23 11:08:06;;;;;;;2.80;1.58;;;22.30;77.50;;;;;;5137544;27;20578;-68
2022/05/23 11:10:57;;;;;;;3.10;1.80;;;22.30;74.30;;;;;;5102251;27;20299;-64
2022/05/23 11:13:37;;;;;;;4.43;1.88;;;22.90;72.50;;;;;;5137122;27;20195;-64
2022/05/23 11:16:09;;;;;;;2.88;1.67;;;23.10;72.60;;;;;;5137199;27;20165;-64
2022/05/23 11:18:59;;;;;;;2.78;2.00;;;23.10;71.50;;;;;;5137064;27;20166;-65
2022/05/23 11:21:35;;;;;;;3.10;1.80;;;23.20;70.90;;;;;;5137277;27;20197;-64
2022/05/23 11:24:07;;;;;;;6.90;2.22;;;23.00;72.00;;;;;;5120699;27;20178;-65
2022/05/23 11:26:42;;;;;;;8.15;1.80;;;23.00;70.80;;;;;;5116257;28;20325;-65
2022/05/23 11:34:46;;;;;;;2.33;2.00;;;23.00;71.50;;;;;;5116477;28;20165;-65
2022/05/23 11:37:49;;;;;;;3.40;1.80;;;23.40;72.10;;;;;;5116416;28;20157;-65
2022/05/23 11:40:28;;;;;;;5.13;1.80;;;23.60;70.30;;;;;;5116304;28;20173;-65
2022/05/23 11:43:03;;;;;;;1.88;1.45;;;23.80;70.30;;;;;;5116454;28;20596;-65
2022/05/23 11:48:49;;;;;;;2.75;1.98;;;23.20;71.50;;;;;;5115924;28;20217;-64
2022/05/23 11:51:24;;;;;;;3.85;1.77;;;23.00;72.00;;;;;;5116214;28;20235;-64
2022/05/23 11:54:10;;;;;;;4.68;2.45;;;23.20;72.20;;;;;;5117430;28;20168;-68
2022/05/23 11:57:05;;;;;;;3.05;1.60;;;23.30;70.10;;;;;;5116788;28;20615;-65
2022/05/23 11:59:30;;;;;;;4.35;1.63;;;23.30;69.00;;;;;;5114573;28;20181;-65
2022/05/23 12:02:08;;;;;;;1.95;1.67;;;23.10;69.90;;;;;;5115738;28;20217;-65
2022/05/23 12:04:49;;;;;;;10.32;2.05;;;23.20;70.80;;;;;;5115589;28;20270;-64
2022/05/23 12:07:43;;;;;;;2.17;1.80;;;23.20;70.30;;;;;;5116034;28;20305;-63
2022/05/23 12:10:21;;;;;;;2.92;1.90;;;22.70;69.30;;;;;;5115102;28;20630;-64
2022/05/23 12:13:12;;;;;;;2.83;2.00;;;22.50;69.80;;;;;;5115158;28;20178;-64
2022/05/23 12:15:44;;;;;;;3.50;1.98;;;22.80;71.10;;;;;;5131082;27;20170;-64
2022/05/23 12:18:22;;;;;;;3.05;1.92;;;22.80;70.30;;;;;;5114579;28;20171;-64
2022/05/23 12:20:49;;;;;;;3.00;1.83;;;22.90;71.90;;;;;;5114871;28;20204;-63
2022/05/23 12:23:34;;;;;;;3.78;1.80;;;22.70;69.60;;;;;;5115717;28;20203;-65
2022/05/23 12:26:14;;;;;;;2.45;2.10;;;22.80;70.30;;;;;;5117886;28;20154;-65
2022/05/23 12:28:44;;;;;;;3.17;1.98;;;23.20;69.80;;;;;;5120633;28;20166;-66
2022/05/23 12:31:12;;;;;;;2.15;1.90;;;23.50;69.50;;;;;;5120574;28;20162;-65
2022/05/23 12:33:42;;;;;;;5.32;2.00;;;23.30;67.90;;;;;;5104837;28;20610;-68
2022/05/23 12:36:11;;;;;;;5.15;1.80;;;23.30;68.10;;;;;;5139693;27;20332;-65
2022/05/23 12:38:46;;;;;;;3.35;2.00;;;23.60;67.80;;;;;;5122215;28;20162;-66
2022/05/23 12:41:23;;;;;;;6.43;1.90;;;23.30;66.60;;;;;;5116398;28;20204;-64
2022/05/23 12:43:57;;;;;;;3.50;1.80;;;23.20;68.60;;;;;;5114769;28;20192;-65
2022/05/23 12:46:25;;;;;;;2.10;1.90;;;23.20;67.90;;;;;;5120343;28;20163;-65
2022/05/23 12:49:12;;;;;;;7.57;1.73;;;23.20;68.60;;;;;;5103733;28;20273;-69
2022/05/23 12:51:52;;;;;;;7.10;2.13;;;22.90;67.90;;;;;;5126845;28;20163;-68
2022/05/23 12:54:31;;;;;;;5.22;1.83;;;23.20;71.00;;;;;;5120754;28;20158;-64
2022/05/23 12:57:34;;;;;;;6.07;2.05;;;23.40;69.00;;;;;;5115054;28;20578;-67
2022/05/23 13:00:20;;;;;;;3.42;1.77;;;23.30;68.30;;;;;;5130235;27;20234;-65
2022/05/23 13:03:24;;;;;;;9.65;2.15;;;23.30;69.30;;;;;;5115097;28;20182;-65
2022/05/23 13:06:16;;;;;;;6.03;1.90;;;23.40;71.30;;;;;;5082723;28;20551;-64
2022/05/23 13:08:50;;;;;;;3.13;2.00;;;23.40;71.00;;;;;;5114594;28;20261;-65
2022/05/23 13:11:23;;;;;;;3.20;2.10;;;23.50;70.50;;;;;;5114596;28;20154;-65
2022/05/23 13:13:50;;;;;;;3.72;2.10;;;23.50;72.50;;;;;;5114643;28;20189;-64
2022/05/23 13:16:31;;;;;;;3.65;2.17;;;23.10;69.20;;;;;;5114274;28;20158;-65
2022/05/23 13:22:06;;;;;;;2.50;2.30;;;22.60;71.60;;;;;;5114432;28;20208;-65
2022/05/23 13:24:48;;;;;;;2.42;2.15;;;22.40;72.80;;;;;;5131018;27;20238;-64
2022/05/23 13:27:37;;;;;;;3.70;2.45;;;22.60;74.10;;;;;;5116168;28;20226;-65
2022/05/23 13:30:08;;;;;;;4.80;2.15;;;22.60;72.50;;;;;;5116740;28;20158;-64
2022/05/23 13:32:35;;;;;;;3.15;2.20;;;22.30;73.30;;;;;;5117348;28;20585;-64
2022/05/23 13:35:14;;;;;;;4.03;2.08;;;22.20;74.30;;;;;;5117592;28;20204;-66
2022/05/23 13:37:40;;;;;;;4.47;2.03;;;22.10;75.20;;;;;;5118408;28;20274;-64
2022/05/23 13:40:07;;;;;;;3.78;2.05;;;22.10;77.00;;;;;;5120302;28;20166;-65
2022/05/23 13:42:33;;;;;;;6.72;2.15;;;22.00;76.90;;;;;;5121860;28;20190;-64
2022/05/23 13:45:27;;;;;;;3.65;2.25;;;22.10;77.60;;;;;;5122664;28;20187;-66
2022/05/23 13:48:05;;;;;;;3.30;2.38;;;22.00;78.50;;;;;;5095616;28;20571;-64
2022/05/23 13:50:42;;;;;;;2.80;2.20;;;21.80;78.60;;;;;;5139236;28;20231;-69
2022/05/23 13:53:11;;;;;;;5.90;2.40;;;21.80;78.80;;;;;;5125489;28;20241;-65
2022/05/23 13:55:43;;;;;;;3.25;1.98;;;21.80;79.50;;;;;;5113539;28;20602;-65
2022/05/23 13:58:17;;;;;;;5.05;2.05;;;21.80;81.20;;;;;;5114474;28;20570;-65
2022/05/23 14:01:11;;;;;;;5.18;2.20;;;21.80;84.40;;;;;;5113452;28;20200;-66
2022/05/23 14:03:44;;;;;;;5.32;2.53;;;21.60;89.30;;;;;;5113347;28;20198;-64
2022/05/23 14:06:18;;;;;;;2.63;1.88;;;21.50;93.10;;;;;;5114156;28;20190;-65
2022/05/23 14:08:52;;;;;;;3.65;2.30;;;21.30;94.40;;;;;;5095953;28;20669;-66
2022/05/23 14:11:18;;;;;;;2.40;2.20;;;21.00;96.30;;;;;;5113580;28;20566;-64